Time;durP1;ratioP1;P1;durP2;ratioP2;P2;SDS_P1;SDS_P2;PMS_P1;PMS_P2;Temp;Humidity;BMP_temperature;BMP_pressure;BME280_temperature;BME280_humidity;BME280_pressure;Samples;Min_cycle;Max_cycle;Signal;HPM_P1;HPM_P2
2023/05/31 00:01:37;;;;;;;;;;;;;;;13.79;100.00;-18399.00;5012873;28;20005;-80
2023/05/31 00:04:02;;;;;;;;;;;;;;;13.68;100.00;-18396.00;4998746;28;19922;-80
2023/05/31 00:06:28;;;;;;;;;;;;;;;13.61;100.00;-18394.22;5016639;28;19944;-80
2023/05/31 00:08:53;;;;;;;;;;;;;;;13.59;100.00;-18393.66;5015088;28;19971;-80
2023/05/31 00:11:18;;;;;;;;;;;;;;;13.61;100.00;-18394.06;4998439;28;20824;-80
2023/05/31 00:13:44;;;;;;;;;;;;;;;13.59;100.00;-18393.66;5014212;28;19929;-81
2023/05/31 00:16:09;;;;;;;;;;;;;;;13.67;100.00;-18395.84;5016233;28;19922;-80
2023/05/31 00:18:35;;;;;;;;;;;;;;;13.64;100.00;-18395.03;4995279;28;19925;-80
2023/05/31 00:21:00;;;;;;;;;;;;;;;13.57;100.00;-18393.09;5010568;28;19961;-80
2023/05/31 00:23:25;;;;;;;;;;;;;;;13.37;100.00;-18387.63;5014602;28;19928;-80
2023/05/31 00:25:50;;;;;;;;;;;;;;;13.39;100.00;-18388.19;4993081;28;21878;-80
2023/05/31 00:28:16;;;;;;;;;;;;;;;13.22;100.00;-18383.66;5013393;28;20448;-80
2023/05/31 00:30:41;;;;;;;;;;;;;;;13.25;100.00;-18384.63;5014254;28;19929;-80
2023/05/31 00:33:06;;;;;;;;;;;;;;;13.14;100.00;-18381.47;5015279;28;19927;-80
2023/05/31 00:35:31;;;;;;;;;;;;;;;13.24;100.00;-18384.34;5012724;28;19952;-80
2023/05/31 00:37:57;;;;;;;;;;;;;;;13.13;100.00;-18381.19;4992413;28;19929;-81
2023/05/31 00:40:22;;;;;;;;;;;;;;;13.19;100.00;-18382.97;4991923;28;20036;-80
2023/05/31 00:42:47;;;;;;;;;;;;;;;13.13;100.00;-18381.19;4974628;28;19934;-80
2023/05/31 00:45:12;;;;;;;;;;;;;;;13.17;100.00;-18382.28;4990021;28;20278;-80
2023/05/31 00:47:38;;;;;;;;;;;;;;;13.09;100.00;-18380.22;4992446;28;19933;-80
2023/05/31 00:50:04;;;;;;;;;;;;;;;13.14;100.00;-18381.47;5005720;28;20005;-81
2023/05/31 00:52:30;;;;;;;;;;;;;;;13.17;100.00;-18382.28;5011321;28;19921;-80
2023/05/31 00:54:55;;;;;;;;;;;;;;;12.99;100.00;-18377.63;5013892;28;19934;-81
2023/05/31 00:57:20;;;;;;;;;;;;;;;13.13;100.00;-18381.19;5011656;28;19921;-80
2023/05/31 00:59:46;;;;;;;;;;;;;;;13.03;100.00;-18378.56;5010637;28;19922;-80
2023/05/31 01:02:11;;;;;;;;;;;;;;;12.90;100.00;-18375.16;5013587;28;19936;-81
2023/05/31 01:04:36;;;;;;;;;;;;;;;12.97;100.00;-18377.06;5012816;28;20016;-80
2023/05/31 01:07:02;;;;;;;;;;;;;;;12.91;100.00;-18375.41;5013040;28;19957;-80
2023/05/31 01:09:28;;;;;;;;;;;;;;;12.87;100.00;-18374.31;5010781;28;19944;-80
2023/05/31 01:11:59;;;;;;;;;;;;;;;13.04;100.00;-18379.00;5004081;28;19957;-80
2023/05/31 01:14:30;;;;;;;;;;;;;;;13.05;100.00;-18379.25;5013372;28;19933;-80
2023/05/31 01:17:05;;;;;;;;;;;;;;;12.80;100.00;-18372.41;5013118;28;19929;-80
2023/05/31 01:19:33;;;;;;;;;;;;;;;13.02;100.00;-18378.31;5012039;28;19925;-80
2023/05/31 01:21:59;;;;;;;;;;;;;;;13.26;100.00;-18384.88;5012340;28;19929;-80
2023/05/31 01:24:43;;;;;;;;;;;;;;;13.29;100.00;-18385.72;4996521;28;19925;-80
2023/05/31 01:27:09;;;;;;;;;;;;;;;13.23;100.00;-18384.06;4991062;28;19985;-80
2023/05/31 01:29:35;;;;;;;;;;;;;;;13.40;100.00;-18388.59;5011318;28;19933;-80
2023/05/31 01:32:01;;;;;;;;;;;;;;;13.30;100.00;-18385.97;5014206;28;19934;-80
2023/05/31 01:34:26;;;;;;;;;;;;;;;13.25;100.00;-18384.63;5013142;28;19925;-80
2023/05/31 01:36:51;;;;;;;;;;;;;;;13.22;100.00;-18383.78;4996298;28;19953;-80
2023/05/31 01:39:17;;;;;;;;;;;;;;;13.16;100.00;-18382.00;4990061;28;19926;-80
2023/05/31 01:41:45;;;;;;;;;;;;;;;13.02;100.00;-18378.31;4990913;28;19929;-80
2023/05/31 01:44:13;;;;;;;;;;;;;;;13.00;100.00;-18377.88;4995942;28;19922;-80
2023/05/31 01:46:40;;;;;;;;;;;;;;;13.05;100.00;-18379.25;4992471;28;19993;-80
2023/05/31 01:49:05;;;;;;;;;;;;;;;13.00;100.00;-18377.75;4995381;28;20226;-80
2023/05/31 01:51:32;;;;;;;;;;;;;;;13.07;100.00;-18379.69;4994633;28;20013;-80
2023/05/31 01:53:58;;;;;;;;;;;;;;;12.96;100.00;-18376.66;5008871;28;20438;-80
2023/05/31 01:56:23;;;;;;;;;;;;;;;12.89;100.00;-18374.88;4994623;28;20016;-80
2023/05/31 01:58:50;;;;;;;;;;;;;;;12.84;100.00;-18373.63;4991842;28;19928;-80
2023/05/31 02:01:16;;;;;;;;;;;;;;;12.80;100.00;-18372.53;5011585;28;20011;-80
2023/05/31 02:03:42;;;;;;;;;;;;;;;12.69;100.00;-18369.53;5010360;28;19929;-80
2023/05/31 02:06:07;;;;;;;;;;;;;;;12.80;100.00;-18372.53;5012150;28;19922;-80
2023/05/31 02:08:32;;;;;;;;;;;;;;;12.71;100.00;-18370.06;5010700;28;19925;-80
2023/05/31 02:10:57;;;;;;;;;;;;;;;12.64;100.00;-18368.16;5012867;28;19922;-81
2023/05/31 02:13:31;;;;;;;;;;;;;;;12.67;100.00;-18368.97;5010751;28;19925;-80
2023/05/31 02:15:57;;;;;;;;;;;;;;;12.73;100.00;-18370.63;5011028;28;19940;-80
2023/05/31 02:18:26;;;;;;;;;;;;;;;12.86;100.00;-18374.06;5010365;28;19925;-80
2023/05/31 02:20:51;;;;;;;;;;;;;;;12.70;100.00;-18369.81;4994549;28;19929;-80
2023/05/31 02:23:16;;;;;;;;;;;;;;;12.62;100.00;-18367.59;5013421;28;19959;-80
2023/05/31 02:25:44;;;;;;;;;;;;;;;12.79;100.00;-18372.13;4994224;28;19932;-80
2023/05/31 02:28:09;;;;;;;;;;;;;;;12.95;100.00;-18376.38;5012622;28;19926;-80
2023/05/31 02:30:36;;;;;;;;;;;;;;;13.01;100.00;-18378.16;5010821;28;19945;-81
2023/05/31 02:33:02;;;;;;;;;;;;;;;12.73;100.00;-18370.63;4992658;28;20048;-80
2023/05/31 02:35:27;;;;;;;;;;;;;;;12.73;100.00;-18370.63;5011004;28;19925;-80
2023/05/31 02:37:52;;;;;;;;;;;;;;;12.81;100.00;-18372.81;5012057;28;19928;-80
2023/05/31 02:40:17;;;;;;;;;;;;;;;12.75;100.00;-18371.03;5011886;28;20507;-80
2023/05/31 02:42:43;;;;;;;;;;;;;;;12.55;100.00;-18365.81;5008710;28;19921;-80
2023/05/31 02:45:09;;;;;;;;;;;;;;;12.50;100.00;-18364.31;4994426;28;19929;-80
2023/05/31 02:47:35;;;;;;;;;;;;;;;12.56;100.00;-18365.97;5012373;28;20408;-80
2023/05/31 02:50:00;;;;;;;;;;;;;;;12.62;100.00;-18367.59;5010257;28;19932;-80
2023/05/31 02:52:26;;;;;;;;;;;;;;;12.58;100.00;-18366.66;5013923;28;19921;-80
2023/05/31 02:54:51;;;;;;;;;;;;;;;12.71;100.00;-18370.06;5009679;28;20336;-80
2023/05/31 02:57:16;;;;;;;;;;;;;;;12.71;100.00;-18370.06;5012478;28;19922;-80
2023/05/31 02:59:46;;;;;;;;;;;;;;;12.70;100.00;-18369.66;5010540;28;20336;-80
2023/05/31 03:02:11;;;;;;;;;;;;;;;12.57;100.00;-18366.22;5013525;28;20658;-80
2023/05/31 03:04:36;;;;;;;;;;;;;;;12.82;100.00;-18373.09;5012661;28;19921;-80
2023/05/31 03:07:01;;;;;;;;;;;;;;;12.55;100.00;-18365.69;5013386;28;20420;-80
2023/05/31 03:09:27;;;;;;;;;;;;;;;12.52;100.00;-18364.88;4997407;28;19932;-79
2023/05/31 03:11:52;;;;;;;;;;;;;;;12.49;100.00;-18364.03;5016297;28;19985;-80
2023/05/31 03:14:17;;;;;;;;;;;;;;;12.40;100.00;-18361.72;5016842;28;19925;-80
2023/05/31 03:16:43;;;;;;;;;;;;;;;12.36;100.00;-18360.75;5017511;28;19921;-79
2023/05/31 03:19:08;;;;;;;;;;;;;;;12.17;100.00;-18355.69;5014608;28;19921;-80
2023/05/31 03:21:33;;;;;;;;;;;;;;;12.09;100.00;-18353.34;5014186;28;19922;-79
2023/05/31 03:23:59;;;;;;;;;;;;;;;11.94;100.00;-18349.38;4994301;28;19921;-80
2023/05/31 03:26:24;;;;;;;;;;;;;;;12.03;100.00;-18351.69;5015644;28;19921;-79
2023/05/31 03:28:49;;;;;;;;;;;;;;;12.04;100.00;-18351.97;5011343;28;19972;-80
2023/05/31 03:31:15;;;;;;;;;;;;;;;12.28;100.00;-18358.41;5017218;28;19921;-80
2023/05/31 03:33:40;;;;;;;;;;;;;;;12.47;100.00;-18363.50;4998663;28;19921;-80
2023/05/31 03:36:05;;;;;;;;;;;;;;;12.31;100.00;-18359.38;5017151;28;19925;-79
2023/05/31 03:38:31;;;;;;;;;;;;;;;12.20;100.00;-18356.38;5016210;28;20351;-82
2023/05/31 03:40:56;;;;;;;;;;;;;;;12.29;100.00;-18358.69;5018256;28;19921;-80
2023/05/31 03:43:21;;;;;;;;;;;;;;;12.36;100.00;-18360.75;5020108;28;19926;-80
2023/05/31 03:45:46;;;;;;;;;;;;;;;12.35;100.00;-18360.47;5007806;28;20571;-80
2023/05/31 03:48:12;;;;;;;;;;;;;;;12.27;100.00;-18358.28;5014588;28;19959;-79
2023/05/31 03:50:39;;;;;;;;;;;;;;;12.27;100.00;-18358.28;5004667;28;19928;-79
2023/05/31 03:53:04;;;;;;;;;;;;;;;12.22;100.00;-18356.78;5008747;28;19936;-79
2023/05/31 03:55:30;;;;;;;;;;;;;;;12.34;100.00;-18360.06;5008937;28;19925;-80
2023/05/31 03:57:56;;;;;;;;;;;;;;;12.28;100.00;-18358.56;5010676;28;19929;-80
2023/05/31 04:00:21;;;;;;;;;;;;;;;12.45;100.00;-18363.09;5013596;28;19979;-81
2023/05/31 04:02:46;;;;;;;;;;;;;;;12.40;100.00;-18361.84;5010952;28;19925;-80
2023/05/31 04:05:12;;;;;;;;;;;;;;;12.52;100.00;-18364.88;4996379;28;20000;-79
2023/05/31 04:07:37;;;;;;;;;;;;;;;12.40;100.00;-18361.84;4993344;28;20317;-79
2023/05/31 04:10:02;;;;;;;;;;;;;;;12.46;100.00;-18363.22;4994110;28;19973;-79
2023/05/31 04:12:28;;;;;;;;;;;;;;;12.44;100.00;-18362.66;5009807;28;19928;-79
2023/05/31 04:14:53;;;;;;;;;;;;;;;12.56;100.00;-18366.09;5013589;28;19933;-79
2023/05/31 04:17:18;;;;;;;;;;;;;;;12.60;100.00;-18367.06;5012653;28;19921;-79
2023/05/31 04:19:43;;;;;;;;;;;;;;;12.76;100.00;-18371.44;5011131;28;20012;-79
2023/05/31 04:22:08;;;;;;;;;;;;;;;12.94;100.00;-18376.09;5014023;28;19964;-79
2023/05/31 04:24:34;;;;;;;;;;;;;;;13.12;100.00;-18381.03;5011301;28;19922;-79
2023/05/31 04:26:59;;;;;;;;;;;;;;;12.90;100.00;-18375.16;5008842;28;19975;-79
2023/05/31 04:29:25;;;;;;;;;;;;;;;12.57;100.00;-18366.38;5012752;28;19933;-79
2023/05/31 04:31:51;;;;;;;;;;;;;;;12.62;100.00;-18367.75;5012974;28;19926;-79
2023/05/31 04:34:17;;;;;;;;;;;;;;;12.59;100.00;-18366.78;4997726;28;20004;-79
2023/05/31 04:36:44;;;;;;;;;;;;;;;12.57;100.00;-18366.22;5012253;28;19929;-79
2023/05/31 04:39:14;;;;;;;;;;;;;;;12.53;100.00;-18365.13;5015400;28;20093;-79
2023/05/31 04:41:39;;;;;;;;;;;;;;;12.66;100.00;-18368.72;4995054;28;19929;-79
2023/05/31 04:44:04;;;;;;;;;;;;;;;12.53;100.00;-18365.13;5014134;28;19972;-80
2023/05/31 04:46:30;;;;;;;;;;;;;;;12.87;100.00;-18374.47;5015792;28;20419;-79
2023/05/31 04:48:55;;;;;;;;;;;;;;;12.85;100.00;-18373.78;5013802;28;19917;-79
2023/05/31 04:51:20;;;;;;;;;;;;;;;12.76;100.00;-18371.44;5004689;28;20297;-79
2023/05/31 04:53:47;;;;;;;;;;;;;;;12.70;100.00;-18369.81;4998802;28;19921;-79
2023/05/31 04:56:12;;;;;;;;;;;;;;;12.79;100.00;-18372.28;5015939;28;19932;-79
2023/05/31 04:58:38;;;;;;;;;;;;;;;12.87;100.00;-18374.47;5005984;28;20025;-79
2023/05/31 05:01:03;;;;;;;;;;;;;;;12.68;100.00;-18369.13;5008518;28;19922;-79
2023/05/31 05:03:29;;;;;;;;;;;;;;;12.71;100.00;-18370.06;5016953;28;20336;-80
2023/05/31 05:05:56;;;;;;;;;;;;;;;12.72;100.00;-18370.22;5017090;28;19981;-80
2023/05/31 05:08:21;;;;;;;;;;;;;;;12.87;100.00;-18374.47;5016832;28;19989;-80
2023/05/31 05:10:47;;;;;;;;;;;;;;;12.88;100.00;-18374.75;5016720;28;19957;-79
2023/05/31 05:13:12;;;;;;;;;;;;;;;12.98;100.00;-18377.22;5017097;28;19944;-80
2023/05/31 05:15:37;;;;;;;;;;;;;;;13.00;100.00;-18377.88;5016369;28;20160;-80
2023/05/31 05:18:03;;;;;;;;;;;;;;;13.20;100.00;-18383.22;5016146;28;20297;-80
2023/05/31 05:20:28;;;;;;;;;;;;;;;13.27;100.00;-18385.16;5008098;28;19993;-80
2023/05/31 05:22:54;;;;;;;;;;;;;;;13.49;100.00;-18390.91;5000978;28;19917;-79
2023/05/31 05:25:20;;;;;;;;;;;;;;;13.54;100.00;-18392.28;5019082;28;20415;-79
2023/05/31 05:27:45;;;;;;;;;;;;;;;13.46;100.00;-18390.22;5014799;28;19980;-79
2023/05/31 05:30:11;;;;;;;;;;;;;;;13.61;100.00;-18394.22;5007911;28;19956;-80
2023/05/31 05:32:36;;;;;;;;;;;;;;;13.76;100.00;-18398.19;5011391;28;19917;-79
2023/05/31 05:35:01;;;;;;;;;;;;;;;13.88;100.00;-18401.31;5017191;28;19929;-80
2023/05/31 05:37:26;;;;;;;;;;;;;;;13.92;100.00;-18402.56;5019088;28;19993;-80
2023/05/31 05:39:52;;;;;;;;;;;;;;;13.89;100.00;-18401.59;5017684;28;19999;-80
2023/05/31 05:42:17;;;;;;;;;;;;;;;13.93;100.00;-18402.84;5012372;28;19922;-80
2023/05/31 05:44:42;;;;;;;;;;;;;;;14.03;100.00;-18405.31;5016445;28;19918;-79
2023/05/31 05:47:07;;;;;;;;;;;;;;;14.25;100.00;-18411.19;5013870;28;19924;-79
2023/05/31 05:49:33;;;;;;;;;;;;;;;14.44;100.00;-18416.53;5013316;28;19933;-79
2023/05/31 05:51:59;;;;;;;;;;;;;;;14.46;100.00;-18416.94;5015203;28;20001;-79
2023/05/31 05:54:24;;;;;;;;;;;;;;;14.39;100.00;-18415.03;5015820;28;19921;-79
2023/05/31 05:56:49;;;;;;;;;;;;;;;14.58;100.00;-18420.09;4997709;28;19921;-80
2023/05/31 05:59:15;;;;;;;;;;;;;;;14.73;100.00;-18424.19;5013310;28;19941;-78
2023/05/31 06:01:40;;;;;;;;;;;;;;;14.82;100.00;-18426.66;5013089;28;19918;-79
2023/05/31 06:04:06;;;;;;;;;;;;;;;14.90;100.00;-18428.72;5015963;28;20016;-80
2023/05/31 06:06:31;;;;;;;;;;;;;;;14.77;100.00;-18425.28;5015813;28;19921;-79
2023/05/31 06:08:57;;;;;;;;;;;;;;;15.00;100.00;-18431.44;5014516;28;19988;-78
2023/05/31 06:11:22;;;;;;;;;;;;;;;15.17;100.00;-18435.97;5015083;28;19944;-79
2023/05/31 06:13:48;;;;;;;;;;;;;;;15.08;100.00;-18433.63;5014288;28;20563;-79
2023/05/31 06:16:14;;;;;;;;;;;;;;;15.14;100.00;-18435.00;5015056;28;19929;-80
2023/05/31 06:18:39;;;;;;;;;;;;;;;15.21;100.00;-18436.94;5015400;28;20015;-78
2023/05/31 06:21:04;;;;;;;;;;;;;;;15.59;100.00;-18447.19;4994839;28;19921;-80
2023/05/31 06:23:29;;;;;;;;;;;;;;;15.54;100.00;-18445.94;4993054;28;19973;-80
2023/05/31 06:25:55;;;;;;;;;;;;;;;15.84;100.00;-18453.75;4997370;28;19949;-79
2023/05/31 06:28:20;;;;;;;;;;;;;;;15.75;100.00;-18451.44;5015150;28;19926;-79
2023/05/31 06:30:45;;;;;;;;;;;;;;;16.05;100.00;-18459.50;5016598;28;19924;-79
2023/05/31 06:33:11;;;;;;;;;;;;;;;15.78;100.00;-18452.25;5016313;28;19941;-79
2023/05/31 06:35:36;;;;;;;;;;;;;;;15.90;100.00;-18455.38;5015983;28;20372;-79
2023/05/31 06:38:03;;;;;;;;;;;;;;;16.18;100.00;-18462.91;5015518;28;19925;-79
2023/05/31 06:40:28;;;;;;;;;;;;;;;16.12;100.00;-18461.28;5008533;28;19981;-81
2023/05/31 06:42:53;;;;;;;;;;;;;;;16.16;100.00;-18462.38;5016420;28;19960;-79
2023/05/31 06:45:19;;;;;;;;;;;;;;;16.28;100.00;-18465.50;5020069;28;19918;-79
2023/05/31 06:47:44;;;;;;;;;;;;;;;16.31;100.00;-18466.47;5020396;28;19918;-80
2023/05/31 06:50:10;;;;;;;;;;;;;;;16.49;100.00;-18471.25;5019873;28;20377;-80
2023/05/31 06:52:35;;;;;;;;;;;;;;;16.62;100.00;-18474.66;4993010;28;20037;-79
2023/05/31 06:55:01;;;;;;;;;;;;;;;16.59;100.00;-18473.84;5003093;28;19953;-78
2023/05/31 06:57:26;;;;;;;;;;;;;;;16.52;100.00;-18472.06;5005942;28;19917;-80
2023/05/31 06:59:51;;;;;;;;;;;;;;;16.77;100.00;-18478.63;4982676;28;19929;-79
2023/05/31 07:02:16;;;;;;;;;;;;;;;16.91;100.00;-18482.44;4995487;28;19917;-79
2023/05/31 07:04:42;;;;;;;;;;;;;;;17.03;100.00;-18485.59;4989364;28;19953;-79
2023/05/31 07:07:09;;;;;;;;;;;;;;;16.99;100.00;-18484.50;4984742;28;19918;-79
2023/05/31 07:09:34;;;;;;;;;;;;;;;17.03;100.00;-18485.59;5000949;28;19918;-80
2023/05/31 07:12:00;;;;;;;;;;;;;;;17.04;100.00;-18485.88;4990961;28;20166;-80
2023/05/31 07:14:27;;;;;;;;;;;;;;;17.36;100.00;-18494.59;4997147;28;19922;-80
2023/05/31 07:16:52;;;;;;;;;;;;;;;17.53;100.00;-18499.09;4984113;28;20009;-80
2023/05/31 07:19:17;;;;;;;;;;;;;;;17.65;100.00;-18502.25;5005303;28;20004;-80
2023/05/31 07:21:43;;;;;;;;;;;;;;;17.69;100.00;-18503.19;5022908;28;19928;-80
2023/05/31 07:24:09;;;;;;;;;;;;;;;17.80;100.00;-18506.34;5023973;28;19936;-80
2023/05/31 07:26:35;;;;;;;;;;;;;;;17.97;100.00;-18510.72;5024879;28;20480;-80
2023/05/31 07:29:00;;;;;;;;;;;;;;;18.08;100.00;-18513.56;5022684;28;19929;-79
2023/05/31 07:31:25;;;;;;;;;;;;;;;18.15;100.00;-18515.63;5022590;28;19921;-78
2023/05/31 07:33:50;;;;;;;;;;;;;;;18.41;100.00;-18522.56;5023790;28;19941;-80
2023/05/31 07:36:16;;;;;;;;;;;;;;;18.48;100.00;-18524.34;5020934;28;19945;-79
2023/05/31 07:38:41;;;;;;;;;;;;;;;18.54;100.00;-18525.97;5018713;28;19928;-78
2023/05/31 07:41:06;;;;;;;;;;;;;;;18.57;100.00;-18526.81;5025934;28;19980;-79
2023/05/31 07:43:32;;;;;;;;;;;;;;;18.84;100.00;-18533.91;4994827;28;19921;-79
2023/05/31 07:45:57;;;;;;;;;;;;;;;19.11;100.00;-18541.25;5019483;28;19917;-80
2023/05/31 07:48:23;;;;;;;;;;;;;;;19.23;100.00;-18544.25;5006938;28;20565;-80
2023/05/31 07:50:49;;;;;;;;;;;;;;;19.16;100.00;-18542.63;5018066;28;19945;-79
2023/05/31 07:53:14;;;;;;;;;;;;;;;18.98;100.00;-18537.72;5016752;28;19924;-79
2023/05/31 07:55:40;;;;;;;;;;;;;;;19.24;100.00;-18544.53;5016772;28;20576;-79
2023/05/31 07:58:05;;;;;;;;;;;;;;;19.14;100.00;-18542.06;5018303;28;19921;-79
2023/05/31 08:00:31;;;;;;;;;;;;;;;19.39;100.00;-18548.75;5020505;28;19917;-78
2023/05/31 08:02:56;;;;;;;;;;;;;;;19.64;100.00;-18555.28;5018057;28;19987;-79
2023/05/31 08:05:21;;;;;;;;;;;;;;;19.57;100.00;-18553.38;5016256;28;19968;-82
2023/05/31 08:07:47;;;;;;;;;;;;;;;19.84;100.00;-18560.59;5013645;28;19921;-79
2023/05/31 08:10:12;;;;;;;;;;;;;;;20.00;100.00;-18564.97;5017573;28;20817;-80
2023/05/31 08:12:38;;;;;;;;;;;;;;;20.08;100.00;-18566.88;4987567;28;19917;-81
2023/05/31 08:15:03;;;;;;;;;;;;;;;19.87;100.00;-18561.41;5015182;28;19953;-79
2023/05/31 08:17:29;;;;;;;;;;;;;;;19.99;100.00;-18564.69;5017924;28;20416;-79
2023/05/31 08:19:54;;;;;;;;;;;;;;;20.29;100.00;-18572.59;5011800;28;19929;-78
2023/05/31 08:22:19;;;;;;;;;;;;;;;20.41;100.00;-18575.84;5012232;28;19928;-80
2023/05/31 08:24:45;;;;;;;;;;;;;;;20.45;100.00;-18576.94;4994894;28;22175;-79
2023/05/31 08:27:10;;;;;;;;;;;;;;;20.64;100.00;-18581.84;4988412;28;19925;-79
2023/05/31 08:29:35;;;;;;;;;;;;;;;20.59;100.00;-18580.47;4992552;28;19976;-79
2023/05/31 08:32:00;;;;;;;;;;;;;;;20.59;100.00;-18580.63;4992857;28;19934;-79
2023/05/31 08:34:25;;;;;;;;;;;;;;;20.76;99.52;-18584.97;4992601;28;19934;-78
2023/05/31 08:36:51;;;;;;;;;;;;;;;20.86;96.45;-18587.69;4994464;28;19922;-80
2023/05/31 08:39:16;;;;;;;;;;;;;;;20.99;100.00;-18591.22;5009417;28;19921;-79
2023/05/31 08:42:02;;;;;;;;;;;;;;;21.18;96.86;-18596.38;5010652;28;19925;-79
2023/05/31 08:44:28;;;;;;;;;;;;;;;21.44;97.66;-18603.19;5011131;28;19929;-79
2023/05/31 08:46:56;;;;;;;;;;;;;;;21.37;94.02;-18601.28;5010984;28;19929;-80
2023/05/31 08:49:22;;;;;;;;;;;;;;;21.37;95.90;-18601.41;5009229;28;19929;-78
2023/05/31 08:51:48;;;;;;;;;;;;;;;21.43;91.07;-18602.91;5010984;28;19933;-79
2023/05/31 08:54:13;;;;;;;;;;;;;;;21.61;88.46;-18607.81;5012804;28;20674;-80
2023/05/31 08:56:39;;;;;;;;;;;;;;;21.61;86.94;-18607.81;5012594;28;20435;-79
2023/05/31 08:59:07;;;;;;;;;;;;;;;21.72;88.75;-18610.66;5014462;28;19921;-79
2023/05/31 09:01:33;;;;;;;;;;;;;;;22.00;79.84;-18618.13;4997640;28;19922;-80
2023/05/31 09:03:58;;;;;;;;;;;;;;;22.28;83.08;-18625.47;5014548;28;19926;-79
2023/05/31 09:06:24;;;;;;;;;;;;;;;22.34;83.77;-18626.97;5015390;28;19922;-77
2023/05/31 09:08:50;;;;;;;;;;;;;;;22.23;82.22;-18624.25;5014553;28;20285;-80
2023/05/31 09:11:15;;;;;;;;;;;;;;;22.21;79.44;-18623.56;5014311;28;19928;-80
2023/05/31 09:13:40;;;;;;;;;;;;;;;22.53;79.88;-18632.28;5014732;28;20403;-78
2023/05/31 09:16:05;;;;;;;;;;;;;;;22.69;80.95;-18636.34;5015980;28;19933;-79
2023/05/31 09:18:38;;;;;;;;;;;;;;;22.79;75.06;-18639.06;4998571;28;19922;-79
2023/05/31 09:21:13;;;;;;;;;;;;;;;22.77;77.98;-18638.38;5010985;28;19925;-78
2023/05/31 09:24:12;;;;;;;;;;;;;;;22.94;76.58;-18643.00;5016361;28;19930;-81
2023/05/31 09:26:50;;;;;;;;;;;;;;;22.95;75.28;-18643.41;4957316;28;20115;-81
2023/05/31 09:29:17;;;;;;;;;;;;;;;23.25;74.00;-18651.28;4993086;28;19997;-79
2023/05/31 09:31:43;;;;;;;;;;;;;;;23.24;71.48;-18650.88;5018871;28;19922;-80
2023/05/31 09:34:23;;;;;;;;;;;;;;;23.50;65.10;-18657.91;5017540;28;19947;-78
2023/05/31 09:36:50;;;;;;;;;;;;;;;23.57;72.13;-18659.69;4997607;28;19922;-80
2023/05/31 09:39:15;;;;;;;;;;;;;;;23.32;66.96;-18653.03;5004675;28;19921;-79
2023/05/31 09:41:41;;;;;;;;;;;;;;;23.47;66.19;-18657.09;5008948;28;19930;-79
2023/05/31 09:44:07;;;;;;;;;;;;;;;23.80;65.74;-18665.78;5008163;28;20415;-79
2023/05/31 09:46:33;;;;;;;;;;;;;;;23.55;63.43;-18659.28;4992423;28;19932;-81
2023/05/31 09:49:00;;;;;;;;;;;;;;;23.90;62.78;-18668.50;5007254;28;19925;-78
2023/05/31 09:51:26;;;;;;;;;;;;;;;24.17;65.77;-18675.53;5008790;28;19921;-78
2023/05/31 09:53:55;;;;;;;;;;;;;;;24.03;60.08;-18672.03;5009784;28;19925;-79
2023/05/31 09:56:23;;;;;;;;;;;;;;;24.13;62.53;-18674.59;5010468;28;19967;-79
2023/05/31 09:58:49;;;;;;;;;;;;;;;24.25;56.53;-18677.72;5006507;28;19922;-80
2023/05/31 10:01:14;;;;;;;;;;;;;;;24.26;56.53;-18678.13;4992066;28;20020;-80
2023/05/31 10:03:40;;;;;;;;;;;;;;;24.10;56.57;-18673.91;5006595;28;19925;-79
2023/05/31 10:06:06;;;;;;;;;;;;;;;24.32;57.28;-18679.75;5006357;28;19928;-80
2023/05/31 10:08:32;;;;;;;;;;;;;;;24.51;52.68;-18684.75;5006783;28;19921;-79
2023/05/31 10:11:01;;;;;;;;;;;;;;;24.57;54.22;-18686.13;5008613;28;19930;-81
2023/05/31 10:13:27;;;;;;;;;;;;;;;24.64;52.70;-18688.00;5007870;28;19929;-79
2023/05/31 10:15:54;;;;;;;;;;;;;;;24.65;52.74;-18688.41;5010846;28;19934;-80
2023/05/31 10:18:21;;;;;;;;;;;;;;;24.86;54.25;-18693.97;5011555;28;19921;-79
2023/05/31 10:20:51;;;;;;;;;;;;;;;24.93;50.02;-18695.88;5008560;28;20010;-79
2023/05/31 10:23:20;;;;;;;;;;;;;;;25.13;51.15;-18701.16;5011002;28;19925;-79
2023/05/31 10:26:06;;;;;;;;;;;;;;;24.96;50.11;-18696.69;5010376;28;19928;-80
2023/05/31 10:28:35;;;;;;;;;;;;;;;24.55;52.07;-18685.72;4971439;28;19927;-80
2023/05/31 10:31:02;;;;;;;;;;;;;;;24.43;53.87;-18682.47;5012650;28;20472;-79
2023/05/31 10:33:30;;;;;;;;;;;;;;;24.53;52.88;-18685.31;4994896;28;19971;-79
2023/05/31 10:35:56;;;;;;;;;;;;;;;24.58;53.26;-18686.38;5011183;28;19925;-80
2023/05/31 10:38:24;;;;;;;;;;;;;;;24.61;51.19;-18687.34;4992015;28;19972;-79
2023/05/31 10:40:53;;;;;;;;;;;;;;;24.40;48.81;-18681.78;5011140;28;19921;-80
2023/05/31 10:43:22;;;;;;;;;;;;;;;24.66;50.24;-18688.69;5012320;28;19922;-80
2023/05/31 10:45:53;;;;;;;;;;;;;;;24.65;50.57;-18688.41;5010974;28;19940;-80
2023/05/31 10:48:20;;;;;;;;;;;;;;;24.70;51.00;-18689.63;5009611;28;19921;-80
2023/05/31 10:50:58;;;;;;;;;;;;;;;24.84;49.66;-18693.44;5014251;28;20266;-81
2023/05/31 10:53:45;;;;;;;;;;;;;;;24.86;51.01;-18693.97;4996456;28;19987;-80
2023/05/31 10:56:13;;;;;;;;;;;;;;;24.85;52.97;-18693.69;5008918;28;19948;-79
2023/05/31 10:58:39;;;;;;;;;;;;;;;24.74;48.45;-18690.72;5013145;28;19945;-79
2023/05/31 11:01:06;;;;;;;;;;;;;;;25.05;50.46;-18698.97;5013879;28;19926;-80
2023/05/31 11:03:33;;;;;;;;;;;;;;;25.28;47.69;-18705.06;5010766;28;19922;-79
2023/05/31 11:05:59;;;;;;;;;;;;;;;25.18;46.15;-18702.50;5011982;28;20013;-80
2023/05/31 11:08:25;;;;;;;;;;;;;;;25.14;48.36;-18701.28;5012579;28;19936;-79
2023/05/31 11:10:50;;;;;;;;;;;;;;;25.21;51.21;-18703.19;5013145;28;19921;-79
2023/05/31 11:13:16;;;;;;;;;;;;;;;25.18;47.92;-18702.50;5014750;28;19980;-81
2023/05/31 11:15:43;;;;;;;;;;;;;;;25.35;48.75;-18706.97;5010681;28;19929;-81
2023/05/31 11:18:11;;;;;;;;;;;;;;;25.27;46.66;-18704.66;5013947;28;19921;-81
2023/05/31 11:20:37;;;;;;;;;;;;;;;25.34;48.27;-18706.69;5014966;28;20332;-79
2023/05/31 11:23:20;;;;;;;;;;;;;;;25.37;49.67;-18707.50;5013424;28;19963;-80
2023/05/31 11:26:04;;;;;;;;;;;;;;;25.55;48.29;-18712.25;5012432;28;19921;-80
2023/05/31 11:28:31;;;;;;;;;;;;;;;25.75;46.13;-18717.53;4996473;28;19922;-81
2023/05/31 11:30:56;;;;;;;;;;;;;;;25.82;47.91;-18719.41;5018864;28;19964;-81
2023/05/31 11:33:22;;;;;;;;;;;;;;;25.67;46.31;-18715.34;5019824;28;19929;-81
2023/05/31 11:35:48;;;;;;;;;;;;;;;25.66;46.96;-18715.09;4996547;28;19933;-80
2023/05/31 11:38:15;;;;;;;;;;;;;;;25.72;45.89;-18716.56;5014089;28;19923;-79
2023/05/31 11:40:40;;;;;;;;;;;;;;;25.68;45.74;-18715.63;4994588;28;19922;-80
2023/05/31 11:43:07;;;;;;;;;;;;;;;25.73;45.66;-18716.97;5013429;28;19972;-80
2023/05/31 11:45:33;;;;;;;;;;;;;;;25.95;45.21;-18722.66;5011564;28;20396;-80
2023/05/31 11:48:17;;;;;;;;;;;;;;;26.02;46.07;-18724.69;5012084;28;19921;-80
2023/05/31 11:50:43;;;;;;;;;;;;;;;26.16;44.45;-18728.34;5012169;28;19972;-79
2023/05/31 11:53:10;;;;;;;;;;;;;;;25.85;44.88;-18720.22;5013137;28;19925;-79
2023/05/31 11:55:35;;;;;;;;;;;;;;;25.83;45.62;-18719.69;4995627;28;19960;-79
2023/05/31 11:58:01;;;;;;;;;;;;;;;25.92;45.89;-18722.00;5013884;28;19926;-79
2023/05/31 12:00:27;;;;;;;;;;;;;;;26.15;45.56;-18728.06;5009369;28;20403;-81
2023/05/31 12:02:53;;;;;;;;;;;;;;;26.09;44.13;-18726.44;5013108;28;19965;-80
2023/05/31 12:05:19;;;;;;;;;;;;;;;26.47;44.43;-18736.44;5006965;28;20368;-79
2023/05/31 12:07:44;;;;;;;;;;;;;;;26.61;43.15;-18740.25;5008828;28;19929;-80
2023/05/31 12:10:10;;;;;;;;;;;;;;;26.66;43.10;-18741.47;5012653;28;20393;-80
2023/05/31 12:12:37;;;;;;;;;;;;;;;26.80;43.16;-18745.09;5015110;28;20452;-81
2023/05/31 12:15:03;;;;;;;;;;;;;;;26.89;45.17;-18747.53;5014892;28;19933;-79
2023/05/31 12:17:32;;;;;;;;;;;;;;;27.12;42.66;-18753.75;5013984;28;19921;-80
2023/05/31 12:19:57;;;;;;;;;;;;;;;27.23;43.39;-18756.59;5008870;28;19922;-79
2023/05/31 12:22:22;;;;;;;;;;;;;;;27.17;41.30;-18754.97;5014117;28;19937;-81
2023/05/31 12:24:51;;;;;;;;;;;;;;;26.96;42.29;-18749.44;5012800;28;19928;-80
2023/05/31 12:27:17;;;;;;;;;;;;;;;26.91;41.51;-18748.22;5013148;28;19925;-82